Saint Louis, Missouri
Traffic Map
Current Weather Conditions
Saint Louis, Missouri
Overcast
Overcast
69°
Feels Like: 69°
Wind Chill: 69° Ceiling: 6000
Heat Index: 69° Visibility: 10mi
Dew Point: 62° Wind: 6mph
Humidity: 78% Direction: 330° (NNW)
Pressure: 29.89in Gusts: 0mph
Raw Report DataKCPS 030953Z AUTO 33005KT 10SM OVC060 21/17 A2989 RMK AO2 SLP117 T02060167 $
Traffic Incident Summary
Active as of:
Severity:
Category:
InformationThere was an issue retrieving the traffic information for this location. Please try a different location or try again shortly.
Advertisements
Track Severe Weather on mobile